sensor_id;sensor_type;location;lat;lon;timestamp;P1;durP1;ratioP1;P2;durP2;ratioP2
6013;SDS011;3035;49.928;8.410;2023-03-01T00:01:07;12.53;;;6.00;;
6013;SDS011;3035;49.928;8.410;2023-03-01T00:03:34;8.73;;;6.27;;
6013;SDS011;3035;49.928;8.410;2023-03-01T00:06:03;13.23;;;6.40;;
6013;SDS011;3035;49.928;8.410;2023-03-01T00:08:33;10.93;;;6.97;;
6013;SDS011;3035;49.928;8.410;2023-03-01T00:11:04;8.83;;;6.33;;
6013;SDS011;3035;49.928;8.410;2023-03-01T00:13:34;9.27;;;5.93;;
6013;SDS011;3035;49.928;8.410;2023-03-01T00:16:03;18.93;;;7.67;;
6013;SDS011;3035;49.928;8.410;2023-03-01T00:18:33;12.13;;;6.70;;
6013;SDS011;3035;49.928;8.410;2023-03-01T00:21:02;11.97;;;6.53;;
6013;SDS011;3035;49.928;8.410;2023-03-01T00:23:33;9.27;;;6.00;;
6013;SDS011;3035;49.928;8.410;2023-03-01T00:26:05;13.90;;;7.00;;
6013;SDS011;3035;49.928;8.410;2023-03-01T00:28:31;10.87;;;6.50;;
6013;SDS011;3035;49.928;8.410;2023-03-01T00:31:04;9.47;;;6.67;;
6013;SDS011;3035;49.928;8.410;2023-03-01T00:33:34;11.47;;;5.60;;
6013;SDS011;3035;49.928;8.410;2023-03-01T00:36:03;10.70;;;6.40;;
6013;SDS011;3035;49.928;8.410;2023-03-01T00:38:35;13.10;;;6.93;;
6013;SDS011;3035;49.928;8.410;2023-03-01T00:41:05;15.67;;;6.57;;
6013;SDS011;3035;49.928;8.410;2023-03-01T00:43:33;10.80;;;6.47;;
6013;SDS011;3035;49.928;8.410;2023-03-01T00:46:03;12.80;;;8.03;;
6013;SDS011;3035;49.928;8.410;2023-03-01T00:48:32;12.90;;;6.83;;
6013;SDS011;3035;49.928;8.410;2023-03-01T00:51:06;12.27;;;7.20;;
6013;SDS011;3035;49.928;8.410;2023-03-01T00:53:38;11.67;;;7.37;;
6013;SDS011;3035;49.928;8.410;2023-03-01T00:56:08;10.93;;;6.47;;
6013;SDS011;3035;49.928;8.410;2023-03-01T00:58:37;11.47;;;7.33;;
6013;SDS011;3035;49.928;8.410;2023-03-01T01:01:08;10.13;;;6.67;;
6013;SDS011;3035;49.928;8.410;2023-03-01T01:03:38;10.40;;;7.03;;
6013;SDS011;3035;49.928;8.410;2023-03-01T01:06:12;13.00;;;7.60;;
6013;SDS011;3035;49.928;8.410;2023-03-01T01:08:36;10.63;;;7.00;;
6013;SDS011;3035;49.928;8.410;2023-03-01T01:11:08;15.87;;;7.13;;
6013;SDS011;3035;49.928;8.410;2023-03-01T01:13:35;8.87;;;6.33;;
6013;SDS011;3035;49.928;8.410;2023-03-01T01:16:05;9.10;;;6.53;;
6013;SDS011;3035;49.928;8.410;2023-03-01T01:18:34;16.00;;;8.13;;
6013;SDS011;3035;49.928;8.410;2023-03-01T01:21:05;10.50;;;6.50;;
6013;SDS011;3035;49.928;8.410;2023-03-01T01:23:34;12.33;;;7.10;;
6013;SDS011;3035;49.928;8.410;2023-03-01T01:26:05;10.50;;;7.60;;
6013;SDS011;3035;49.928;8.410;2023-03-01T01:28:36;12.03;;;6.90;;
6013;SDS011;3035;49.928;8.410;2023-03-01T01:31:05;11.47;;;6.90;;
6013;SDS011;3035;49.928;8.410;2023-03-01T01:33:35;14.03;;;6.30;;
6013;SDS011;3035;49.928;8.410;2023-03-01T01:36:04;11.70;;;8.03;;
6013;SDS011;3035;49.928;8.410;2023-03-01T01:38:34;13.70;;;7.67;;
6013;SDS011;3035;49.928;8.410;2023-03-01T01:41:03;10.00;;;7.47;;
6013;SDS011;3035;49.928;8.410;2023-03-01T01:43:34;11.40;;;7.03;;
6013;SDS011;3035;49.928;8.410;2023-03-01T01:46:05;9.90;;;6.77;;
6013;SDS011;3035;49.928;8.410;2023-03-01T01:48:39;11.83;;;7.13;;
6013;SDS011;3035;49.928;8.410;2023-03-01T01:53:55;12.43;;;6.43;;
6013;SDS011;3035;49.928;8.410;2023-03-01T01:56:22;16.90;;;6.43;;
6013;SDS011;3035;49.928;8.410;2023-03-01T01:58:51;11.67;;;7.70;;
6013;SDS011;3035;49.928;8.410;2023-03-01T02:01:21;13.60;;;7.30;;
6013;SDS011;3035;49.928;8.410;2023-03-01T02:03:50;18.23;;;7.60;;
6013;SDS011;3035;49.928;8.410;2023-03-01T02:06:21;9.93;;;6.67;;
6013;SDS011;3035;49.928;8.410;2023-03-01T02:08:49;11.30;;;7.03;;
6013;SDS011;3035;49.928;8.410;2023-03-01T02:11:18;14.20;;;7.43;;
6013;SDS011;3035;49.928;8.410;2023-03-01T02:13:48;13.93;;;7.73;;
6013;SDS011;3035;49.928;8.410;2023-03-01T02:16:17;15.03;;;7.50;;
6013;SDS011;3035;49.928;8.410;2023-03-01T02:18:46;12.93;;;7.03;;
6013;SDS011;3035;49.928;8.410;2023-03-01T02:21:25;10.70;;;7.20;;
6013;SDS011;3035;49.928;8.410;2023-03-01T02:24:03;18.93;;;7.87;;
6013;SDS011;3035;49.928;8.410;2023-03-01T02:26:35;12.10;;;6.77;;
6013;SDS011;3035;49.928;8.410;2023-03-01T02:29:07;14.27;;;8.27;;
6013;SDS011;3035;49.928;8.410;2023-03-01T02:31:37;11.63;;;7.10;;
6013;SDS011;3035;49.928;8.410;2023-03-01T02:34:10;14.37;;;8.37;;
6013;SDS011;3035;49.928;8.410;2023-03-01T02:36:45;11.90;;;6.53;;
6013;SDS011;3035;49.928;8.410;2023-03-01T02:39:15;15.53;;;8.03;;
6013;SDS011;3035;49.928;8.410;2023-03-01T02:41:46;15.60;;;7.80;;
6013;SDS011;3035;49.928;8.410;2023-03-01T02:44:13;14.97;;;7.53;;
6013;SDS011;3035;49.928;8.410;2023-03-01T02:46:48;11.10;;;7.07;;
6013;SDS011;3035;49.928;8.410;2023-03-01T02:49:19;14.00;;;8.10;;
6013;SDS011;3035;49.928;8.410;2023-03-01T02:57:15;12.63;;;7.00;;
6013;SDS011;3035;49.928;8.410;2023-03-01T02:59:44;19.73;;;8.20;;
6013;SDS011;3035;49.928;8.410;2023-03-01T03:02:25;16.43;;;7.80;;
6013;SDS011;3035;49.928;8.410;2023-03-01T03:04:59;10.73;;;7.67;;
6013;SDS011;3035;49.928;8.410;2023-03-01T03:07:27;14.20;;;8.77;;
6013;SDS011;3035;49.928;8.410;2023-03-01T03:09:56;13.27;;;8.20;;
6013;SDS011;3035;49.928;8.410;2023-03-01T03:12:24;14.33;;;7.90;;
6013;SDS011;3035;49.928;8.410;2023-03-01T03:14:52;15.30;;;7.53;;
6013;SDS011;3035;49.928;8.410;2023-03-01T03:17:20;11.10;;;7.10;;
6013;SDS011;3035;49.928;8.410;2023-03-01T03:19:50;14.97;;;7.93;;
6013;SDS011;3035;49.928;8.410;2023-03-01T03:22:18;10.07;;;7.40;;
6013;SDS011;3035;49.928;8.410;2023-03-01T03:24:46;12.50;;;7.70;;
6013;SDS011;3035;49.928;8.410;2023-03-01T03:27:14;13.10;;;8.00;;
6013;SDS011;3035;49.928;8.410;2023-03-01T03:29:42;10.73;;;7.47;;
6013;SDS011;3035;49.928;8.410;2023-03-01T03:32:11;15.27;;;8.50;;
6013;SDS011;3035;49.928;8.410;2023-03-01T03:34:39;14.10;;;8.63;;
6013;SDS011;3035;49.928;8.410;2023-03-01T03:37:07;16.07;;;8.43;;
6013;SDS011;3035;49.928;8.410;2023-03-01T03:39:35;13.83;;;8.03;;
6013;SDS011;3035;49.928;8.410;2023-03-01T03:42:03;15.07;;;7.97;;
6013;SDS011;3035;49.928;8.410;2023-03-01T03:44:32;12.30;;;7.30;;
6013;SDS011;3035;49.928;8.410;2023-03-01T03:47:00;15.57;;;7.83;;
6013;SDS011;3035;49.928;8.410;2023-03-01T03:49:28;13.70;;;8.03;;
6013;SDS011;3035;49.928;8.410;2023-03-01T03:51:56;16.10;;;7.70;;
6013;SDS011;3035;49.928;8.410;2023-03-01T03:54:24;13.70;;;8.47;;
6013;SDS011;3035;49.928;8.410;2023-03-01T03:56:53;13.40;;;7.40;;
6013;SDS011;3035;49.928;8.410;2023-03-01T03:59:21;11.47;;;7.03;;
6013;SDS011;3035;49.928;8.410;2023-03-01T04:01:51;11.13;;;7.63;;
6013;SDS011;3035;49.928;8.410;2023-03-01T04:04:19;12.83;;;7.33;;
6013;SDS011;3035;49.928;8.410;2023-03-01T04:06:48;14.47;;;8.27;;
6013;SDS011;3035;49.928;8.410;2023-03-01T04:09:16;17.70;;;8.43;;
6013;SDS011;3035;49.928;8.410;2023-03-01T04:11:44;24.27;;;8.27;;
6013;SDS011;3035;49.928;8.410;2023-03-01T04:14:12;11.73;;;7.80;;
6013;SDS011;3035;49.928;8.410;2023-03-01T04:16:40;16.23;;;8.30;;
6013;SDS011;3035;49.928;8.410;2023-03-01T04:19:09;12.20;;;7.63;;
6013;SDS011;3035;49.928;8.410;2023-03-01T04:21:37;14.67;;;8.40;;
6013;SDS011;3035;49.928;8.410;2023-03-01T04:24:05;15.40;;;7.87;;
6013;SDS011;3035;49.928;8.410;2023-03-01T04:26:34;14.40;;;8.60;;
6013;SDS011;3035;49.928;8.410;2023-03-01T04:29:03;18.13;;;8.73;;
6013;SDS011;3035;49.928;8.410;2023-03-01T04:31:31;17.27;;;8.73;;
6013;SDS011;3035;49.928;8.410;2023-03-01T04:33:59;11.33;;;7.37;;
6013;SDS011;3035;49.928;8.410;2023-03-01T04:36:28;15.73;;;8.60;;
6013;SDS011;3035;49.928;8.410;2023-03-01T04:38:56;14.40;;;8.53;;
6013;SDS011;3035;49.928;8.410;2023-03-01T04:41:25;14.43;;;8.60;;
6013;SDS011;3035;49.928;8.410;2023-03-01T04:43:53;19.37;;;9.53;;
6013;SDS011;3035;49.928;8.410;2023-03-01T04:46:21;13.63;;;8.10;;
6013;SDS011;3035;49.928;8.410;2023-03-01T04:48:50;17.97;;;8.80;;
6013;SDS011;3035;49.928;8.410;2023-03-01T04:51:18;13.63;;;8.40;;
6013;SDS011;3035;49.928;8.410;2023-03-01T04:53:47;11.70;;;7.90;;
6013;SDS011;3035;49.928;8.410;2023-03-01T04:56:16;20.90;;;8.97;;
6013;SDS011;3035;49.928;8.410;2023-03-01T04:58:45;14.10;;;8.00;;
6013;SDS011;3035;49.928;8.410;2023-03-01T05:01:14;15.53;;;8.80;;
6013;SDS011;3035;49.928;8.410;2023-03-01T05:03:44;11.43;;;8.37;;
6013;SDS011;3035;49.928;8.410;2023-03-01T05:06:12;15.47;;;8.70;;
6013;SDS011;3035;49.928;8.410;2023-03-01T05:08:40;17.33;;;9.90;;
6013;SDS011;3035;49.928;8.410;2023-03-01T05:11:08;16.53;;;8.30;;
6013;SDS011;3035;49.928;8.410;2023-03-01T05:13:36;13.67;;;8.80;;
6013;SDS011;3035;49.928;8.410;2023-03-01T05:16:04;15.13;;;8.90;;
6013;SDS011;3035;49.928;8.410;2023-03-01T05:18:33;18.40;;;9.77;;
6013;SDS011;3035;49.928;8.410;2023-03-01T05:21:03;14.50;;;8.43;;
6013;SDS011;3035;49.928;8.410;2023-03-01T05:23:33;15.73;;;9.80;;
6013;SDS011;3035;49.928;8.410;2023-03-01T05:26:03;16.83;;;8.70;;
6013;SDS011;3035;49.928;8.410;2023-03-01T05:28:30;17.80;;;8.87;;
6013;SDS011;3035;49.928;8.410;2023-03-01T05:30:59;15.47;;;8.50;;
6013;SDS011;3035;49.928;8.410;2023-03-01T05:33:28;14.27;;;8.90;;
6013;SDS011;3035;49.928;8.410;2023-03-01T05:35:59;21.03;;;9.67;;
6013;SDS011;3035;49.928;8.410;2023-03-01T05:38:24;18.07;;;8.73;;
6013;SDS011;3035;49.928;8.410;2023-03-01T05:40:52;14.77;;;8.77;;
6013;SDS011;3035;49.928;8.410;2023-03-01T05:43:20;16.10;;;8.17;;
6013;SDS011;3035;49.928;8.410;2023-03-01T05:45:49;16.27;;;8.13;;
6013;SDS011;3035;49.928;8.410;2023-03-01T05:48:17;19.30;;;8.83;;
6013;SDS011;3035;49.928;8.410;2023-03-01T05:50:45;16.30;;;8.83;;
6013;SDS011;3035;49.928;8.410;2023-03-01T05:53:15;14.97;;;8.60;;
6013;SDS011;3035;49.928;8.410;2023-03-01T05:55:44;19.73;;;9.63;;
6013;SDS011;3035;49.928;8.410;2023-03-01T05:58:15;15.50;;;8.67;;
6013;SDS011;3035;49.928;8.410;2023-03-01T06:00:41;17.80;;;8.97;;
6013;SDS011;3035;49.928;8.410;2023-03-01T06:03:10;16.80;;;8.80;;
6013;SDS011;3035;49.928;8.410;2023-03-01T06:05:38;16.23;;;9.17;;
6013;SDS011;3035;49.928;8.410;2023-03-01T06:08:08;14.57;;;9.17;;
6013;SDS011;3035;49.928;8.410;2023-03-01T06:10:35;26.77;;;9.33;;
6013;SDS011;3035;49.928;8.410;2023-03-01T06:13:04;18.97;;;9.40;;
6013;SDS011;3035;49.928;8.410;2023-03-01T06:15:32;20.37;;;10.00;;
6013;SDS011;3035;49.928;8.410;2023-03-01T06:18:00;19.20;;;8.67;;
6013;SDS011;3035;49.928;8.410;2023-03-01T06:20:29;15.57;;;8.73;;
6013;SDS011;3035;49.928;8.410;2023-03-01T06:22:57;15.40;;;9.30;;
6013;SDS011;3035;49.928;8.410;2023-03-01T06:25:27;17.00;;;8.30;;
6013;SDS011;3035;49.928;8.410;2023-03-01T06:27:55;20.60;;;10.13;;
6013;SDS011;3035;49.928;8.410;2023-03-01T06:30:24;14.90;;;9.07;;
6013;SDS011;3035;49.928;8.410;2023-03-01T06:32:53;18.63;;;8.27;;
6013;SDS011;3035;49.928;8.410;2023-03-01T06:35:21;13.60;;;8.87;;
6013;SDS011;3035;49.928;8.410;2023-03-01T06:37:50;14.43;;;8.47;;
6013;SDS011;3035;49.928;8.410;2023-03-01T06:40:18;17.17;;;9.40;;
6013;SDS011;3035;49.928;8.410;2023-03-01T06:42:48;18.57;;;9.63;;
6013;SDS011;3035;49.928;8.410;2023-03-01T06:45:16;18.83;;;9.60;;
6013;SDS011;3035;49.928;8.410;2023-03-01T06:47:44;16.67;;;9.40;;
6013;SDS011;3035;49.928;8.410;2023-03-01T06:50:12;16.97;;;8.80;;
6013;SDS011;3035;49.928;8.410;2023-03-01T06:52:41;13.87;;;8.70;;
6013;SDS011;3035;49.928;8.410;2023-03-01T06:55:09;18.03;;;9.70;;
6013;SDS011;3035;49.928;8.410;2023-03-01T06:57:37;15.20;;;9.60;;
6013;SDS011;3035;49.928;8.410;2023-03-01T07:00:07;18.47;;;9.63;;
6013;SDS011;3035;49.928;8.410;2023-03-01T07:02:36;19.27;;;9.13;;
6013;SDS011;3035;49.928;8.410;2023-03-01T07:05:04;12.53;;;8.40;;
6013;SDS011;3035;49.928;8.410;2023-03-01T07:07:34;18.90;;;9.80;;
6013;SDS011;3035;49.928;8.410;2023-03-01T07:10:02;19.07;;;9.73;;
6013;SDS011;3035;49.928;8.410;2023-03-01T07:12:32;13.70;;;8.80;;
6013;SDS011;3035;49.928;8.410;2023-03-01T07:15:00;18.87;;;10.57;;
6013;SDS011;3035;49.928;8.410;2023-03-01T07:17:29;16.03;;;8.63;;
6013;SDS011;3035;49.928;8.410;2023-03-01T07:19:58;15.60;;;8.53;;
6013;SDS011;3035;49.928;8.410;2023-03-01T07:22:27;20.53;;;8.77;;
6013;SDS011;3035;49.928;8.410;2023-03-01T07:24:55;15.00;;;8.40;;
6013;SDS011;3035;49.928;8.410;2023-03-01T07:27:23;15.40;;;8.87;;
6013;SDS011;3035;49.928;8.410;2023-03-01T07:29:51;23.70;;;9.43;;
6013;SDS011;3035;49.928;8.410;2023-03-01T07:32:20;18.50;;;9.77;;
6013;SDS011;3035;49.928;8.410;2023-03-01T07:34:48;16.27;;;8.80;;
6013;SDS011;3035;49.928;8.410;2023-03-01T07:37:16;18.03;;;8.90;;
6013;SDS011;3035;49.928;8.410;2023-03-01T07:39:44;16.27;;;8.20;;
6013;SDS011;3035;49.928;8.410;2023-03-01T07:42:13;16.87;;;9.47;;
6013;SDS011;3035;49.928;8.410;2023-03-01T07:44:41;20.60;;;8.87;;
6013;SDS011;3035;49.928;8.410;2023-03-01T07:47:10;16.30;;;9.10;;
6013;SDS011;3035;49.928;8.410;2023-03-01T07:49:38;19.80;;;9.80;;
6013;SDS011;3035;49.928;8.410;2023-03-01T07:52:09;16.53;;;9.73;;
6013;SDS011;3035;49.928;8.410;2023-03-01T07:54:35;15.03;;;8.70;;
6013;SDS011;3035;49.928;8.410;2023-03-01T07:57:04;14.87;;;9.13;;
6013;SDS011;3035;49.928;8.410;2023-03-01T07:59:32;17.83;;;10.20;;
6013;SDS011;3035;49.928;8.410;2023-03-01T08:02:01;16.33;;;9.20;;
6013;SDS011;3035;49.928;8.410;2023-03-01T08:04:29;17.93;;;9.33;;
6013;SDS011;3035;49.928;8.410;2023-03-01T08:06:57;19.03;;;9.50;;
6013;SDS011;3035;49.928;8.410;2023-03-01T08:09:25;15.97;;;9.90;;
6013;SDS011;3035;49.928;8.410;2023-03-01T08:11:53;19.20;;;9.97;;
6013;SDS011;3035;49.928;8.410;2023-03-01T08:14:22;18.57;;;10.03;;
6013;SDS011;3035;49.928;8.410;2023-03-01T08:16:50;17.67;;;9.30;;
6013;SDS011;3035;49.928;8.410;2023-03-01T08:19:19;18.30;;;9.53;;
6013;SDS011;3035;49.928;8.410;2023-03-01T08:21:48;15.53;;;9.20;;
6013;SDS011;3035;49.928;8.410;2023-03-01T08:24:16;15.90;;;9.87;;
6013;SDS011;3035;49.928;8.410;2023-03-01T08:26:44;20.03;;;9.73;;
6013;SDS011;3035;49.928;8.410;2023-03-01T08:29:13;18.80;;;9.80;;
6013;SDS011;3035;49.928;8.410;2023-03-01T08:31:41;13.13;;;9.33;;
6013;SDS011;3035;49.928;8.410;2023-03-01T08:34:11;14.40;;;9.10;;
6013;SDS011;3035;49.928;8.410;2023-03-01T08:36:40;13.70;;;8.20;;
6013;SDS011;3035;49.928;8.410;2023-03-01T08:39:07;16.33;;;8.70;;
6013;SDS011;3035;49.928;8.410;2023-03-01T08:41:36;19.20;;;9.57;;
6013;SDS011;3035;49.928;8.410;2023-03-01T08:44:04;16.20;;;10.37;;
6013;SDS011;3035;49.928;8.410;2023-03-01T08:46:34;19.50;;;9.07;;
6013;SDS011;3035;49.928;8.410;2023-03-01T08:49:04;25.97;;;9.50;;
6013;SDS011;3035;49.928;8.410;2023-03-01T08:51:32;15.93;;;9.23;;
6013;SDS011;3035;49.928;8.410;2023-03-01T08:54:00;14.03;;;8.30;;
6013;SDS011;3035;49.928;8.410;2023-03-01T08:56:28;19.83;;;9.53;;
6013;SDS011;3035;49.928;8.410;2023-03-01T08:58:56;15.17;;;9.00;;
6013;SDS011;3035;49.928;8.410;2023-03-01T09:01:25;18.10;;;9.20;;
6013;SDS011;3035;49.928;8.410;2023-03-01T09:03:53;24.90;;;9.90;;
6013;SDS011;3035;49.928;8.410;2023-03-01T09:06:21;17.63;;;9.10;;
6013;SDS011;3035;49.928;8.410;2023-03-01T09:08:49;18.33;;;9.90;;
6013;SDS011;3035;49.928;8.410;2023-03-01T09:11:19;17.83;;;9.60;;
6013;SDS011;3035;49.928;8.410;2023-03-01T09:13:48;17.23;;;9.47;;
6013;SDS011;3035;49.928;8.410;2023-03-01T09:16:17;23.33;;;10.93;;
6013;SDS011;3035;49.928;8.410;2023-03-01T09:18:43;19.47;;;8.87;;
6013;SDS011;3035;49.928;8.410;2023-03-01T09:21:13;19.17;;;9.73;;
6013;SDS011;3035;49.928;8.410;2023-03-01T09:23:42;17.10;;;10.33;;
6013;SDS011;3035;49.928;8.410;2023-03-01T09:26:09;20.67;;;8.80;;
6013;SDS011;3035;49.928;8.410;2023-03-01T09:28:38;18.97;;;10.23;;
6013;SDS011;3035;49.928;8.410;2023-03-01T09:31:06;17.43;;;9.90;;
6013;SDS011;3035;49.928;8.410;2023-03-01T09:33:34;22.50;;;9.80;;
6013;SDS011;3035;49.928;8.410;2023-03-01T09:36:03;18.87;;;9.20;;
6013;SDS011;3035;49.928;8.410;2023-03-01T09:38:33;21.40;;;10.20;;
6013;SDS011;3035;49.928;8.410;2023-03-01T09:41:01;16.83;;;9.53;;
6013;SDS011;3035;49.928;8.410;2023-03-01T09:43:31;18.03;;;10.20;;
6013;SDS011;3035;49.928;8.410;2023-03-01T09:45:59;18.87;;;9.87;;
6013;SDS011;3035;49.928;8.410;2023-03-01T09:48:27;18.13;;;10.30;;
6013;SDS011;3035;49.928;8.410;2023-03-01T09:50:55;18.30;;;10.53;;
6013;SDS011;3035;49.928;8.410;2023-03-01T09:53:27;21.57;;;10.43;;
6013;SDS011;3035;49.928;8.410;2023-03-01T09:55:55;16.77;;;9.50;;
6013;SDS011;3035;49.928;8.410;2023-03-01T09:58:34;29.70;;;10.40;;
6013;SDS011;3035;49.928;8.410;2023-03-01T10:01:16;16.80;;;9.80;;
6013;SDS011;3035;49.928;8.410;2023-03-01T10:09:55;14.50;;;9.37;;
6013;SDS011;3035;49.928;8.410;2023-03-01T10:12:25;17.97;;;10.40;;
6013;SDS011;3035;49.928;8.410;2023-03-01T10:15:01;20.40;;;10.27;;
6013;SDS011;3035;49.928;8.410;2023-03-01T10:17:32;17.60;;;9.10;;
6013;SDS011;3035;49.928;8.410;2023-03-01T10:20:12;17.07;;;9.37;;
6013;SDS011;3035;49.928;8.410;2023-03-01T10:22:43;18.27;;;9.77;;
6013;SDS011;3035;49.928;8.410;2023-03-01T10:25:12;21.00;;;9.33;;
6013;SDS011;3035;49.928;8.410;2023-03-01T10:27:46;21.17;;;9.77;;
6013;SDS011;3035;49.928;8.410;2023-03-01T10:30:29;17.80;;;10.67;;
6013;SDS011;3035;49.928;8.410;2023-03-01T10:33:13;16.87;;;9.43;;
6013;SDS011;3035;49.928;8.410;2023-03-01T10:35:43;19.73;;;10.50;;
6013;SDS011;3035;49.928;8.410;2023-03-01T10:38:12;21.10;;;10.50;;
6013;SDS011;3035;49.928;8.410;2023-03-01T10:43:18;21.00;;;11.07;;
6013;SDS011;3035;49.928;8.410;2023-03-01T10:45:47;16.07;;;8.90;;
6013;SDS011;3035;49.928;8.410;2023-03-01T10:48:16;15.50;;;9.00;;
6013;SDS011;3035;49.928;8.410;2023-03-01T10:50:47;18.27;;;9.90;;
6013;SDS011;3035;49.928;8.410;2023-03-01T10:53:21;16.70;;;10.00;;
6013;SDS011;3035;49.928;8.410;2023-03-01T10:55:56;25.60;;;10.13;;
6013;SDS011;3035;49.928;8.410;2023-03-01T10:58:27;17.60;;;9.43;;
6013;SDS011;3035;49.928;8.410;2023-03-01T11:00:57;15.80;;;9.57;;
6013;SDS011;3035;49.928;8.410;2023-03-01T11:03:27;16.43;;;10.00;;
6013;SDS011;3035;49.928;8.410;2023-03-01T11:05:58;17.67;;;10.57;;
6013;SDS011;3035;49.928;8.410;2023-03-01T11:08:30;16.30;;;10.27;;
6013;SDS011;3035;49.928;8.410;2023-03-01T11:11:04;18.27;;;9.67;;
6013;SDS011;3035;49.928;8.410;2023-03-01T11:13:54;20.17;;;10.43;;
6013;SDS011;3035;49.928;8.410;2023-03-01T11:16:24;16.40;;;10.33;;
6013;SDS011;3035;49.928;8.410;2023-03-01T11:19:13;17.47;;;9.43;;
6013;SDS011;3035;49.928;8.410;2023-03-01T11:21:50;18.93;;;10.77;;
6013;SDS011;3035;49.928;8.410;2023-03-01T11:24:39;18.90;;;10.60;;
6013;SDS011;3035;49.928;8.410;2023-03-01T11:27:16;15.27;;;9.20;;
6013;SDS011;3035;49.928;8.410;2023-03-01T11:32:47;16.87;;;9.67;;
6013;SDS011;3035;49.928;8.410;2023-03-01T11:35:16;17.70;;;9.77;;
6013;SDS011;3035;49.928;8.410;2023-03-01T11:37:55;20.37;;;10.47;;
6013;SDS011;3035;49.928;8.410;2023-03-01T11:40:45;18.67;;;10.30;;
6013;SDS011;3035;49.928;8.410;2023-03-01T11:49:34;16.17;;;10.70;;
6013;SDS011;3035;49.928;8.410;2023-03-01T11:52:16;16.73;;;9.53;;
6013;SDS011;3035;49.928;8.410;2023-03-01T11:54:55;17.60;;;10.07;;
6013;SDS011;3035;49.928;8.410;2023-03-01T11:57:32;17.13;;;9.80;;
6013;SDS011;3035;49.928;8.410;2023-03-01T12:00:21;17.03;;;9.83;;
6013;SDS011;3035;49.928;8.410;2023-03-01T12:08:35;15.53;;;10.90;;
6013;SDS011;3035;49.928;8.410;2023-03-01T12:11:13;19.03;;;11.07;;
6013;SDS011;3035;49.928;8.410;2023-03-01T12:13:47;16.00;;;10.17;;
6013;SDS011;3035;49.928;8.410;2023-03-01T12:16:23;15.30;;;10.30;;
6013;SDS011;3035;49.928;8.410;2023-03-01T12:19:00;17.90;;;9.97;;
6013;SDS011;3035;49.928;8.410;2023-03-01T12:21:42;15.63;;;9.90;;
6013;SDS011;3035;49.928;8.410;2023-03-01T12:24:47;14.40;;;9.60;;
6013;SDS011;3035;49.928;8.410;2023-03-01T12:27:20;18.50;;;10.90;;
6013;SDS011;3035;49.928;8.410;2023-03-01T12:32:57;17.67;;;10.13;;
6013;SDS011;3035;49.928;8.410;2023-03-01T12:35:47;13.23;;;9.13;;
6013;SDS011;3035;49.928;8.410;2023-03-01T12:38:41;13.80;;;8.93;;
6013;SDS011;3035;49.928;8.410;2023-03-01T12:41:15;14.40;;;9.83;;
6013;SDS011;3035;49.928;8.410;2023-03-01T12:46:47;22.07;;;9.70;;
6013;SDS011;3035;49.928;8.410;2023-03-01T12:49:22;19.20;;;9.57;;
6013;SDS011;3035;49.928;8.410;2023-03-01T12:52:11;14.83;;;8.17;;
6013;SDS011;3035;49.928;8.410;2023-03-01T12:54:39;17.63;;;8.50;;
6013;SDS011;3035;49.928;8.410;2023-03-01T12:57:12;14.70;;;9.80;;
6013;SDS011;3035;49.928;8.410;2023-03-01T12:59:42;16.67;;;9.27;;
6013;SDS011;3035;49.928;8.410;2023-03-01T13:02:31;15.53;;;9.13;;
6013;SDS011;3035;49.928;8.410;2023-03-01T13:05:06;14.57;;;8.73;;
6013;SDS011;3035;49.928;8.410;2023-03-01T13:07:36;11.50;;;8.50;;
6013;SDS011;3035;49.928;8.410;2023-03-01T13:10:11;13.00;;;8.93;;
6013;SDS011;3035;49.928;8.410;2023-03-01T13:12:43;15.70;;;7.77;;
6013;SDS011;3035;49.928;8.410;2023-03-01T13:17:57;27.73;;;8.40;;
6013;SDS011;3035;49.928;8.410;2023-03-01T13:20:27;12.73;;;7.67;;
6013;SDS011;3035;49.928;8.410;2023-03-01T13:23:23;13.10;;;8.20;;
6013;SDS011;3035;49.928;8.410;2023-03-01T13:26:00;11.70;;;8.00;;
6013;SDS011;3035;49.928;8.410;2023-03-01T13:28:38;19.40;;;8.10;;
6013;SDS011;3035;49.928;8.410;2023-03-01T13:31:54;12.17;;;7.60;;
6013;SDS011;3035;49.928;8.410;2023-03-01T13:34:39;11.90;;;8.03;;
6013;SDS011;3035;49.928;8.410;2023-03-01T13:37:08;12.00;;;7.73;;
6013;SDS011;3035;49.928;8.410;2023-03-01T13:39:39;13.50;;;7.83;;
6013;SDS011;3035;49.928;8.410;2023-03-01T13:42:29;15.53;;;8.93;;
6013;SDS011;3035;49.928;8.410;2023-03-01T13:44:47;12.30;;;7.53;;
6013;SDS011;3035;49.928;8.410;2023-03-01T13:47:16;16.40;;;7.40;;
6013;SDS011;3035;49.928;8.410;2023-03-01T13:49:47;11.93;;;6.90;;
6013;SDS011;3035;49.928;8.410;2023-03-01T13:52:24;16.03;;;5.97;;
6013;SDS011;3035;49.928;8.410;2023-03-01T13:55:15;10.40;;;7.00;;
6013;SDS011;3035;49.928;8.410;2023-03-01T13:57:46;11.27;;;6.87;;
6013;SDS011;3035;49.928;8.410;2023-03-01T14:05:29;11.33;;;7.40;;
6013;SDS011;3035;49.928;8.410;2023-03-01T14:07:57;12.27;;;7.83;;
6013;SDS011;3035;49.928;8.410;2023-03-01T14:10:35;9.37;;;7.00;;
6013;SDS011;3035;49.928;8.410;2023-03-01T14:13:02;11.67;;;7.30;;
6013;SDS011;3035;49.928;8.410;2023-03-01T14:15:33;11.60;;;7.37;;
6013;SDS011;3035;49.928;8.410;2023-03-01T14:20:48;14.93;;;7.80;;
6013;SDS011;3035;49.928;8.410;2023-03-01T14:23:19;11.83;;;7.60;;
6013;SDS011;3035;49.928;8.410;2023-03-01T14:25:48;10.80;;;6.60;;
6013;SDS011;3035;49.928;8.410;2023-03-01T14:31:02;13.60;;;8.20;;
6013;SDS011;3035;49.928;8.410;2023-03-01T14:33:31;10.80;;;7.50;;
6013;SDS011;3035;49.928;8.410;2023-03-01T14:36:03;13.83;;;7.57;;
6013;SDS011;3035;49.928;8.410;2023-03-01T14:38:35;9.60;;;7.27;;
6013;SDS011;3035;49.928;8.410;2023-03-01T14:41:15;10.23;;;7.03;;
6013;SDS011;3035;49.928;8.410;2023-03-01T14:43:47;9.83;;;7.23;;
6013;SDS011;3035;49.928;8.410;2023-03-01T14:46:21;18.20;;;7.50;;
6013;SDS011;3035;49.928;8.410;2023-03-01T14:48:53;9.27;;;7.03;;
6013;SDS011;3035;49.928;8.410;2023-03-01T14:51:22;9.60;;;6.90;;
6013;SDS011;3035;49.928;8.410;2023-03-01T14:53:50;13.50;;;7.43;;
6013;SDS011;3035;49.928;8.410;2023-03-01T14:56:19;9.43;;;6.63;;
6013;SDS011;3035;49.928;8.410;2023-03-01T14:58:50;12.17;;;8.03;;
6013;SDS011;3035;49.928;8.410;2023-03-01T15:01:19;11.50;;;6.83;;
6013;SDS011;3035;49.928;8.410;2023-03-01T15:03:49;9.20;;;6.30;;
6013;SDS011;3035;49.928;8.410;2023-03-01T15:06:18;13.50;;;8.07;;
6013;SDS011;3035;49.928;8.410;2023-03-01T15:08:46;11.23;;;6.87;;
6013;SDS011;3035;49.928;8.410;2023-03-01T15:14:01;9.20;;;6.60;;
6013;SDS011;3035;49.928;8.410;2023-03-01T15:16:31;10.83;;;6.37;;
6013;SDS011;3035;49.928;8.410;2023-03-01T15:19:02;11.30;;;6.97;;
6013;SDS011;3035;49.928;8.410;2023-03-01T15:21:31;12.40;;;7.13;;
6013;SDS011;3035;49.928;8.410;2023-03-01T15:24:03;12.70;;;7.63;;
6013;SDS011;3035;49.928;8.410;2023-03-01T15:26:35;13.80;;;7.87;;
6013;SDS011;3035;49.928;8.410;2023-03-01T15:29:01;11.60;;;7.43;;
6013;SDS011;3035;49.928;8.410;2023-03-01T15:31:32;11.80;;;6.97;;
6013;SDS011;3035;49.928;8.410;2023-03-01T15:36:41;12.77;;;7.53;;
6013;SDS011;3035;49.928;8.410;2023-03-01T15:42:01;12.70;;;7.07;;
6013;SDS011;3035;49.928;8.410;2023-03-01T15:44:30;13.67;;;7.93;;
6013;SDS011;3035;49.928;8.410;2023-03-01T15:46:58;13.03;;;7.43;;
6013;SDS011;3035;49.928;8.410;2023-03-01T15:49:33;10.83;;;7.90;;
6013;SDS011;3035;49.928;8.410;2023-03-01T15:52:00;17.33;;;7.47;;
6013;SDS011;3035;49.928;8.410;2023-03-01T15:54:28;13.50;;;8.07;;
6013;SDS011;3035;49.928;8.410;2023-03-01T15:56:57;11.37;;;7.17;;
6013;SDS011;3035;49.928;8.410;2023-03-01T15:59:25;10.50;;;6.47;;
6013;SDS011;3035;49.928;8.410;2023-03-01T16:01:54;10.10;;;6.30;;
6013;SDS011;3035;49.928;8.410;2023-03-01T16:04:22;14.20;;;6.63;;
6013;SDS011;3035;49.928;8.410;2023-03-01T16:06:52;9.63;;;6.40;;
6013;SDS011;3035;49.928;8.410;2023-03-01T16:09:23;10.50;;;6.73;;
6013;SDS011;3035;49.928;8.410;2023-03-01T16:11:51;12.63;;;6.70;;
6013;SDS011;3035;49.928;8.410;2023-03-01T16:14:20;11.00;;;6.17;;
6013;SDS011;3035;49.928;8.410;2023-03-01T16:16:49;10.03;;;6.67;;
6013;SDS011;3035;49.928;8.410;2023-03-01T16:19:17;10.70;;;6.53;;
6013;SDS011;3035;49.928;8.410;2023-03-01T16:21:47;11.50;;;6.50;;